sensor_id;sensor_type;location;lat;lon;timestamp;P1;durP1;ratioP1;P2;durP2;ratioP2
45208;SDS011;30951;43.994;26.260;2024-02-21T00:00:55;51.50;;;25.42;;
45208;SDS011;30951;43.994;26.260;2024-02-21T00:03:20;50.78;;;27.27;;
45208;SDS011;30951;43.994;26.260;2024-02-21T00:05:45;48.60;;;27.02;;
45208;SDS011;30951;43.994;26.260;2024-02-21T00:08:11;51.25;;;26.75;;
45208;SDS011;30951;43.994;26.260;2024-02-21T00:10:36;50.72;;;28.05;;
45208;SDS011;30951;43.994;26.260;2024-02-21T00:13:03;49.97;;;26.48;;
45208;SDS011;30951;43.994;26.260;2024-02-21T00:15:28;50.38;;;28.33;;
45208;SDS011;30951;43.994;26.260;2024-02-21T00:17:54;51.42;;;26.67;;
45208;SDS011;30951;43.994;26.260;2024-02-21T00:20:19;54.50;;;27.90;;
45208;SDS011;30951;43.994;26.260;2024-02-21T00:22:45;53.38;;;28.55;;
45208;SDS011;30951;43.994;26.260;2024-02-21T00:25:11;49.97;;;28.27;;
45208;SDS011;30951;43.994;26.260;2024-02-21T00:27:36;55.17;;;30.27;;
45208;SDS011;30951;43.994;26.260;2024-02-21T00:30:02;51.95;;;28.50;;
45208;SDS011;30951;43.994;26.260;2024-02-21T00:32:28;55.05;;;28.98;;
45208;SDS011;30951;43.994;26.260;2024-02-21T00:34:54;49.42;;;28.05;;
45208;SDS011;30951;43.994;26.260;2024-02-21T00:37:19;43.63;;;26.13;;
45208;SDS011;30951;43.994;26.260;2024-02-21T00:39:45;45.90;;;26.77;;
45208;SDS011;30951;43.994;26.260;2024-02-21T00:42:11;46.30;;;25.90;;
45208;SDS011;30951;43.994;26.260;2024-02-21T00:44:36;50.55;;;26.00;;
45208;SDS011;30951;43.994;26.260;2024-02-21T00:47:02;44.20;;;25.23;;
45208;SDS011;30951;43.994;26.260;2024-02-21T00:49:27;44.42;;;25.55;;
45208;SDS011;30951;43.994;26.260;2024-02-21T00:51:53;45.28;;;24.77;;
45208;SDS011;30951;43.994;26.260;2024-02-21T00:54:18;45.50;;;24.35;;
45208;SDS011;30951;43.994;26.260;2024-02-21T00:56:44;47.22;;;25.35;;
45208;SDS011;30951;43.994;26.260;2024-02-21T00:59:09;49.10;;;24.88;;
45208;SDS011;30951;43.994;26.260;2024-02-21T01:01:35;45.58;;;25.60;;
45208;SDS011;30951;43.994;26.260;2024-02-21T01:04:00;47.45;;;25.50;;
45208;SDS011;30951;43.994;26.260;2024-02-21T01:06:26;51.67;;;24.70;;
45208;SDS011;30951;43.994;26.260;2024-02-21T01:08:51;43.50;;;24.65;;
45208;SDS011;30951;43.994;26.260;2024-02-21T01:11:17;48.03;;;24.75;;
45208;SDS011;30951;43.994;26.260;2024-02-21T01:13:43;45.90;;;26.67;;
45208;SDS011;30951;43.994;26.260;2024-02-21T01:16:09;46.25;;;25.27;;
45208;SDS011;30951;43.994;26.260;2024-02-21T01:18:36;45.83;;;25.63;;
45208;SDS011;30951;43.994;26.260;2024-02-21T01:21:02;50.35;;;27.27;;
45208;SDS011;30951;43.994;26.260;2024-02-21T01:23:32;54.28;;;26.65;;
45208;SDS011;30951;43.994;26.260;2024-02-21T01:25:58;46.97;;;25.70;;
45208;SDS011;30951;43.994;26.260;2024-02-21T01:28:23;52.75;;;25.88;;
45208;SDS011;30951;43.994;26.260;2024-02-21T01:30:49;48.95;;;25.08;;
45208;SDS011;30951;43.994;26.260;2024-02-21T01:33:15;51.65;;;26.95;;
45208;SDS011;30951;43.994;26.260;2024-02-21T01:35:41;51.03;;;25.40;;
45208;SDS011;30951;43.994;26.260;2024-02-21T01:38:06;50.33;;;27.80;;
45208;SDS011;30951;43.994;26.260;2024-02-21T01:40:32;54.92;;;27.95;;
45208;SDS011;30951;43.994;26.260;2024-02-21T01:42:57;48.25;;;28.38;;
45208;SDS011;30951;43.994;26.260;2024-02-21T01:45:23;48.28;;;27.77;;
45208;SDS011;30951;43.994;26.260;2024-02-21T01:47:48;51.97;;;28.45;;
45208;SDS011;30951;43.994;26.260;2024-02-21T01:50:14;49.35;;;27.15;;
45208;SDS011;30951;43.994;26.260;2024-02-21T01:52:41;50.50;;;28.65;;
45208;SDS011;30951;43.994;26.260;2024-02-21T01:55:08;52.05;;;25.95;;
45208;SDS011;30951;43.994;26.260;2024-02-21T01:57:35;44.15;;;25.35;;
45208;SDS011;30951;43.994;26.260;2024-02-21T02:00:00;46.65;;;25.50;;
45208;SDS011;30951;43.994;26.260;2024-02-21T02:02:26;48.67;;;26.27;;
45208;SDS011;30951;43.994;26.260;2024-02-21T02:04:52;46.60;;;24.83;;
45208;SDS011;30951;43.994;26.260;2024-02-21T02:07:18;51.03;;;26.02;;
45208;SDS011;30951;43.994;26.260;2024-02-21T02:09:43;47.88;;;26.27;;
45208;SDS011;30951;43.994;26.260;2024-02-21T02:12:09;48.45;;;24.42;;
45208;SDS011;30951;43.994;26.260;2024-02-21T02:14:34;48.92;;;25.50;;
45208;SDS011;30951;43.994;26.260;2024-02-21T02:17:00;46.10;;;23.88;;
45208;SDS011;30951;43.994;26.260;2024-02-21T02:19:26;46.63;;;23.70;;
45208;SDS011;30951;43.994;26.260;2024-02-21T02:21:53;41.72;;;24.02;;
45208;SDS011;30951;43.994;26.260;2024-02-21T02:24:22;45.15;;;24.95;;
45208;SDS011;30951;43.994;26.260;2024-02-21T02:26:49;50.58;;;26.10;;
45208;SDS011;30951;43.994;26.260;2024-02-21T02:29:14;49.08;;;26.15;;
45208;SDS011;30951;43.994;26.260;2024-02-21T02:31:41;51.22;;;25.98;;
45208;SDS011;30951;43.994;26.260;2024-02-21T02:34:07;49.85;;;25.55;;
45208;SDS011;30951;43.994;26.260;2024-02-21T02:36:33;48.80;;;24.95;;
45208;SDS011;30951;43.994;26.260;2024-02-21T02:38:59;48.72;;;25.05;;
45208;SDS011;30951;43.994;26.260;2024-02-21T02:41:24;47.85;;;24.25;;
45208;SDS011;30951;43.994;26.260;2024-02-21T02:43:50;49.58;;;24.55;;
45208;SDS011;30951;43.994;26.260;2024-02-21T02:46:15;47.58;;;23.50;;
45208;SDS011;30951;43.994;26.260;2024-02-21T02:48:41;49.42;;;25.10;;
45208;SDS011;30951;43.994;26.260;2024-02-21T02:51:06;52.95;;;25.30;;
45208;SDS011;30951;43.994;26.260;2024-02-21T02:53:32;46.95;;;24.20;;
45208;SDS011;30951;43.994;26.260;2024-02-21T02:55:57;45.85;;;24.40;;
45208;SDS011;30951;43.994;26.260;2024-02-21T02:58:23;48.65;;;24.75;;
45208;SDS011;30951;43.994;26.260;2024-02-21T03:00:48;46.88;;;24.02;;
45208;SDS011;30951;43.994;26.260;2024-02-21T03:03:14;44.83;;;23.50;;
45208;SDS011;30951;43.994;26.260;2024-02-21T03:05:39;49.65;;;24.38;;
45208;SDS011;30951;43.994;26.260;2024-02-21T03:08:05;45.70;;;24.98;;
45208;SDS011;30951;43.994;26.260;2024-02-21T03:10:35;47.00;;;24.90;;
45208;SDS011;30951;43.994;26.260;2024-02-21T03:13:01;47.92;;;25.77;;
45208;SDS011;30951;43.994;26.260;2024-02-21T03:15:26;49.97;;;25.65;;
45208;SDS011;30951;43.994;26.260;2024-02-21T03:17:52;40.45;;;23.30;;
45208;SDS011;30951;43.994;26.260;2024-02-21T03:20:17;56.03;;;25.38;;
45208;SDS011;30951;43.994;26.260;2024-02-21T03:22:44;63.92;;;27.52;;
45208;SDS011;30951;43.994;26.260;2024-02-21T03:25:10;49.08;;;25.60;;
45208;SDS011;30951;43.994;26.260;2024-02-21T03:27:36;45.88;;;24.90;;
45208;SDS011;30951;43.994;26.260;2024-02-21T03:30:01;47.45;;;25.85;;
45208;SDS011;30951;43.994;26.260;2024-02-21T03:32:27;46.22;;;24.75;;
45208;SDS011;30951;43.994;26.260;2024-02-21T03:34:53;48.67;;;25.45;;
45208;SDS011;30951;43.994;26.260;2024-02-21T03:37:19;50.10;;;26.58;;
45208;SDS011;30951;43.994;26.260;2024-02-21T03:39:45;47.05;;;25.98;;
45208;SDS011;30951;43.994;26.260;2024-02-21T03:42:11;52.92;;;26.52;;
45208;SDS011;30951;43.994;26.260;2024-02-21T03:44:37;49.70;;;26.20;;
45208;SDS011;30951;43.994;26.260;2024-02-21T03:47:02;43.42;;;24.73;;
45208;SDS011;30951;43.994;26.260;2024-02-21T03:49:28;55.35;;;28.20;;
45208;SDS011;30951;43.994;26.260;2024-02-21T03:51:54;50.33;;;26.70;;
45208;SDS011;30951;43.994;26.260;2024-02-21T03:54:20;49.10;;;26.17;;
45208;SDS011;30951;43.994;26.260;2024-02-21T03:56:45;48.88;;;27.52;;
45208;SDS011;30951;43.994;26.260;2024-02-21T03:59:12;46.90;;;28.50;;
45208;SDS011;30951;43.994;26.260;2024-02-21T04:01:38;49.42;;;28.70;;
45208;SDS011;30951;43.994;26.260;2024-02-21T04:04:04;48.15;;;26.40;;
45208;SDS011;30951;43.994;26.260;2024-02-21T04:06:29;57.47;;;26.33;;
45208;SDS011;30951;43.994;26.260;2024-02-21T04:08:55;45.95;;;24.05;;
45208;SDS011;30951;43.994;26.260;2024-02-21T04:11:20;50.45;;;25.05;;
45208;SDS011;30951;43.994;26.260;2024-02-21T04:13:46;49.15;;;24.90;;
45208;SDS011;30951;43.994;26.260;2024-02-21T04:16:14;46.50;;;24.70;;
45208;SDS011;30951;43.994;26.260;2024-02-21T04:18:41;48.65;;;25.40;;
45208;SDS011;30951;43.994;26.260;2024-02-21T04:21:06;51.40;;;24.55;;
45208;SDS011;30951;43.994;26.260;2024-02-21T04:23:32;47.25;;;24.35;;
45208;SDS011;30951;43.994;26.260;2024-02-21T04:25:57;48.88;;;26.27;;
45208;SDS011;30951;43.994;26.260;2024-02-21T04:28:23;44.35;;;24.55;;
45208;SDS011;30951;43.994;26.260;2024-02-21T04:30:49;47.13;;;23.98;;
45208;SDS011;30951;43.994;26.260;2024-02-21T04:33:14;45.22;;;24.40;;
45208;SDS011;30951;43.994;26.260;2024-02-21T04:35:39;45.63;;;24.88;;
45208;SDS011;30951;43.994;26.260;2024-02-21T04:38:05;45.72;;;24.00;;
45208;SDS011;30951;43.994;26.260;2024-02-21T04:40:30;47.63;;;25.73;;
45208;SDS011;30951;43.994;26.260;2024-02-21T04:42:57;49.63;;;25.55;;
45208;SDS011;30951;43.994;26.260;2024-02-21T04:45:22;48.08;;;26.42;;
45208;SDS011;30951;43.994;26.260;2024-02-21T04:47:48;53.13;;;26.08;;
45208;SDS011;30951;43.994;26.260;2024-02-21T04:50:13;49.28;;;26.60;;
45208;SDS011;30951;43.994;26.260;2024-02-21T04:52:39;44.00;;;22.65;;
45208;SDS011;30951;43.994;26.260;2024-02-21T04:55:05;47.70;;;24.02;;
45208;SDS011;30951;43.994;26.260;2024-02-21T04:57:31;44.00;;;24.98;;
45208;SDS011;30951;43.994;26.260;2024-02-21T04:59:56;50.72;;;25.67;;
45208;SDS011;30951;43.994;26.260;2024-02-21T05:02:22;46.80;;;23.85;;
45208;SDS011;30951;43.994;26.260;2024-02-21T05:04:49;43.65;;;23.67;;
45208;SDS011;30951;43.994;26.260;2024-02-21T05:07:15;47.65;;;25.42;;
45208;SDS011;30951;43.994;26.260;2024-02-21T05:09:42;64.40;;;27.60;;
45208;SDS011;30951;43.994;26.260;2024-02-21T05:12:08;52.15;;;25.92;;
45208;SDS011;30951;43.994;26.260;2024-02-21T05:14:33;49.72;;;26.05;;
45208;SDS011;30951;43.994;26.260;2024-02-21T05:16:59;53.03;;;26.88;;
45208;SDS011;30951;43.994;26.260;2024-02-21T05:19:25;50.67;;;26.65;;
45208;SDS011;30951;43.994;26.260;2024-02-21T05:21:50;50.85;;;25.65;;
45208;SDS011;30951;43.994;26.260;2024-02-21T05:24:15;64.10;;;27.15;;
45208;SDS011;30951;43.994;26.260;2024-02-21T05:26:41;48.35;;;24.73;;
45208;SDS011;30951;43.994;26.260;2024-02-21T05:29:07;51.13;;;24.80;;
45208;SDS011;30951;43.994;26.260;2024-02-21T05:34:16;45.25;;;24.67;;
45208;SDS011;30951;43.994;26.260;2024-02-21T05:36:44;48.72;;;25.40;;
45208;SDS011;30951;43.994;26.260;2024-02-21T05:39:10;47.25;;;24.92;;
45208;SDS011;30951;43.994;26.260;2024-02-21T05:41:35;45.88;;;24.65;;
45208;SDS011;30951;43.994;26.260;2024-02-21T05:44:01;48.15;;;25.55;;
45208;SDS011;30951;43.994;26.260;2024-02-21T05:46:26;52.67;;;26.73;;
45208;SDS011;30951;43.994;26.260;2024-02-21T05:48:52;50.50;;;26.40;;
45208;SDS011;30951;43.994;26.260;2024-02-21T05:51:17;50.42;;;25.80;;
45208;SDS011;30951;43.994;26.260;2024-02-21T05:53:43;44.95;;;24.65;;
45208;SDS011;30951;43.994;26.260;2024-02-21T05:56:12;55.35;;;27.50;;
45208;SDS011;30951;43.994;26.260;2024-02-21T05:58:38;49.42;;;25.27;;
45208;SDS011;30951;43.994;26.260;2024-02-21T06:01:04;46.10;;;24.55;;
45208;SDS011;30951;43.994;26.260;2024-02-21T06:03:31;43.70;;;24.48;;
45208;SDS011;30951;43.994;26.260;2024-02-21T06:05:58;47.28;;;25.38;;
45208;SDS011;30951;43.994;26.260;2024-02-21T06:08:24;51.65;;;26.27;;
45208;SDS011;30951;43.994;26.260;2024-02-21T06:10:49;51.00;;;26.73;;
45208;SDS011;30951;43.994;26.260;2024-02-21T06:13:19;53.70;;;29.40;;
45208;SDS011;30951;43.994;26.260;2024-02-21T06:15:48;53.75;;;28.73;;
45208;SDS011;30951;43.994;26.260;2024-02-21T06:18:15;52.90;;;28.10;;
45208;SDS011;30951;43.994;26.260;2024-02-21T06:20:42;56.83;;;31.42;;
45208;SDS011;30951;43.994;26.260;2024-02-21T06:23:08;58.90;;;30.55;;
45208;SDS011;30951;43.994;26.260;2024-02-21T06:25:34;60.55;;;30.00;;
45208;SDS011;30951;43.994;26.260;2024-02-21T06:27:59;55.45;;;29.33;;
45208;SDS011;30951;43.994;26.260;2024-02-21T06:30:25;56.83;;;28.10;;
45208;SDS011;30951;43.994;26.260;2024-02-21T06:32:50;59.60;;;29.70;;
45208;SDS011;30951;43.994;26.260;2024-02-21T06:35:16;56.10;;;29.75;;
45208;SDS011;30951;43.994;26.260;2024-02-21T06:37:42;60.25;;;29.42;;
45208;SDS011;30951;43.994;26.260;2024-02-21T06:40:07;55.40;;;29.25;;
45208;SDS011;30951;43.994;26.260;2024-02-21T06:42:33;56.22;;;30.45;;
45208;SDS011;30951;43.994;26.260;2024-02-21T06:44:59;54.00;;;28.88;;
45208;SDS011;30951;43.994;26.260;2024-02-21T06:47:24;63.58;;;29.77;;
45208;SDS011;30951;43.994;26.260;2024-02-21T06:49:50;52.17;;;28.27;;
45208;SDS011;30951;43.994;26.260;2024-02-21T06:52:19;58.45;;;28.63;;
45208;SDS011;30951;43.994;26.260;2024-02-21T06:54:46;58.70;;;30.67;;
45208;SDS011;30951;43.994;26.260;2024-02-21T06:57:14;60.85;;;29.55;;
45208;SDS011;30951;43.994;26.260;2024-02-21T06:59:42;56.25;;;29.27;;
45208;SDS011;30951;43.994;26.260;2024-02-21T07:02:08;55.60;;;30.58;;
45208;SDS011;30951;43.994;26.260;2024-02-21T07:04:33;59.50;;;31.27;;
45208;SDS011;30951;43.994;26.260;2024-02-21T07:06:59;79.93;;;42.88;;
45208;SDS011;30951;43.994;26.260;2024-02-21T07:09:25;77.63;;;38.67;;
45208;SDS011;30951;43.994;26.260;2024-02-21T07:11:50;79.70;;;38.50;;
45208;SDS011;30951;43.994;26.260;2024-02-21T07:14:16;75.32;;;37.63;;
45208;SDS011;30951;43.994;26.260;2024-02-21T07:16:43;71.40;;;33.53;;
45208;SDS011;30951;43.994;26.260;2024-02-21T07:19:08;52.30;;;28.55;;
45208;SDS011;30951;43.994;26.260;2024-02-21T07:21:33;55.17;;;28.70;;
45208;SDS011;30951;43.994;26.260;2024-02-21T07:23:59;56.97;;;28.90;;
45208;SDS011;30951;43.994;26.260;2024-02-21T07:26:24;55.53;;;29.02;;
45208;SDS011;30951;43.994;26.260;2024-02-21T07:28:50;53.03;;;29.42;;
45208;SDS011;30951;43.994;26.260;2024-02-21T07:31:15;50.75;;;28.63;;
45208;SDS011;30951;43.994;26.260;2024-02-21T07:33:41;59.08;;;29.48;;
45208;SDS011;30951;43.994;26.260;2024-02-21T07:36:07;54.88;;;30.17;;
45208;SDS011;30951;43.994;26.260;2024-02-21T07:38:35;52.60;;;27.77;;
45208;SDS011;30951;43.994;26.260;2024-02-21T07:41:00;56.35;;;28.17;;
45208;SDS011;30951;43.994;26.260;2024-02-21T07:43:25;53.67;;;28.73;;
45208;SDS011;30951;43.994;26.260;2024-02-21T07:45:51;53.28;;;29.17;;
45208;SDS011;30951;43.994;26.260;2024-02-21T07:48:18;55.78;;;29.77;;
45208;SDS011;30951;43.994;26.260;2024-02-21T07:50:44;59.35;;;31.02;;
45208;SDS011;30951;43.994;26.260;2024-02-21T07:53:09;59.50;;;29.13;;
45208;SDS011;30951;43.994;26.260;2024-02-21T07:55:35;65.07;;;33.47;;
45208;SDS011;30951;43.994;26.260;2024-02-21T07:58:00;71.45;;;35.53;;
45208;SDS011;30951;43.994;26.260;2024-02-21T08:00:26;72.50;;;33.75;;
45208;SDS011;30951;43.994;26.260;2024-02-21T08:02:51;64.28;;;35.58;;
45208;SDS011;30951;43.994;26.260;2024-02-21T08:05:17;66.00;;;35.65;;
45208;SDS011;30951;43.994;26.260;2024-02-21T08:07:42;66.47;;;35.90;;
45208;SDS011;30951;43.994;26.260;2024-02-21T08:10:08;66.32;;;34.28;;
45208;SDS011;30951;43.994;26.260;2024-02-21T08:12:34;78.22;;;40.88;;
45208;SDS011;30951;43.994;26.260;2024-02-21T08:15:00;70.15;;;33.10;;
45208;SDS011;30951;43.994;26.260;2024-02-21T08:17:26;69.95;;;33.28;;
45208;SDS011;30951;43.994;26.260;2024-02-21T08:19:51;60.33;;;33.50;;
45208;SDS011;30951;43.994;26.260;2024-02-21T08:22:17;75.05;;;37.88;;
45208;SDS011;30951;43.994;26.260;2024-02-21T08:24:42;74.40;;;35.05;;
45208;SDS011;30951;43.994;26.260;2024-02-21T08:27:08;72.93;;;36.83;;
45208;SDS011;30951;43.994;26.260;2024-02-21T08:29:34;69.55;;;36.03;;
45208;SDS011;30951;43.994;26.260;2024-02-21T08:31:59;78.00;;;38.28;;
45208;SDS011;30951;43.994;26.260;2024-02-21T08:34:24;75.75;;;37.85;;
45208;SDS011;30951;43.994;26.260;2024-02-21T08:36:50;72.57;;;35.70;;
45208;SDS011;30951;43.994;26.260;2024-02-21T08:39:16;77.18;;;36.72;;
45208;SDS011;30951;43.994;26.260;2024-02-21T08:41:42;78.82;;;37.58;;
45208;SDS011;30951;43.994;26.260;2024-02-21T08:44:07;79.93;;;39.88;;
45208;SDS011;30951;43.994;26.260;2024-02-21T08:46:33;82.68;;;41.80;;
45208;SDS011;30951;43.994;26.260;2024-02-21T08:48:59;88.30;;;41.38;;
45208;SDS011;30951;43.994;26.260;2024-02-21T08:51:24;84.60;;;42.35;;
45208;SDS011;30951;43.994;26.260;2024-02-21T08:53:50;80.63;;;42.15;;
45208;SDS011;30951;43.994;26.260;2024-02-21T08:56:16;92.57;;;46.50;;
45208;SDS011;30951;43.994;26.260;2024-02-21T08:58:42;88.32;;;48.75;;
45208;SDS011;30951;43.994;26.260;2024-02-21T09:01:08;91.00;;;49.25;;
45208;SDS011;30951;43.994;26.260;2024-02-21T09:03:36;89.53;;;46.38;;
45208;SDS011;30951;43.994;26.260;2024-02-21T09:06:03;82.10;;;40.88;;
45208;SDS011;30951;43.994;26.260;2024-02-21T09:08:30;73.80;;;39.45;;
45208;SDS011;30951;43.994;26.260;2024-02-21T09:10:55;76.82;;;37.03;;
45208;SDS011;30951;43.994;26.260;2024-02-21T09:13:20;64.80;;;34.67;;
45208;SDS011;30951;43.994;26.260;2024-02-21T09:15:47;75.05;;;39.20;;
45208;SDS011;30951;43.994;26.260;2024-02-21T09:18:13;77.28;;;38.58;;
45208;SDS011;30951;43.994;26.260;2024-02-21T09:20:39;73.05;;;37.60;;
45208;SDS011;30951;43.994;26.260;2024-02-21T09:23:04;79.60;;;40.45;;
45208;SDS011;30951;43.994;26.260;2024-02-21T09:25:30;78.10;;;37.60;;
45208;SDS011;30951;43.994;26.260;2024-02-21T09:27:56;75.32;;;41.33;;
45208;SDS011;30951;43.994;26.260;2024-02-21T09:30:23;71.97;;;40.45;;
45208;SDS011;30951;43.994;26.260;2024-02-21T09:32:49;83.55;;;40.28;;
45208;SDS011;30951;43.994;26.260;2024-02-21T09:35:15;76.53;;;38.90;;
45208;SDS011;30951;43.994;26.260;2024-02-21T09:37:40;74.38;;;38.78;;
45208;SDS011;30951;43.994;26.260;2024-02-21T09:40:06;80.82;;;41.72;;
45208;SDS011;30951;43.994;26.260;2024-02-21T09:42:39;77.35;;;41.10;;
45208;SDS011;30951;43.994;26.260;2024-02-21T09:45:24;74.25;;;39.38;;
45208;SDS011;30951;43.994;26.260;2024-02-21T09:50:27;75.53;;;38.03;;
45208;SDS011;30951;43.994;26.260;2024-02-21T09:52:54;74.80;;;41.08;;
45208;SDS011;30951;43.994;26.260;2024-02-21T09:55:21;68.82;;;37.97;;
45208;SDS011;30951;43.994;26.260;2024-02-21T09:57:46;67.85;;;40.03;;
45208;SDS011;30951;43.994;26.260;2024-02-21T10:00:13;74.93;;;42.40;;
45208;SDS011;30951;43.994;26.260;2024-02-21T10:02:46;75.57;;;41.45;;
45208;SDS011;30951;43.994;26.260;2024-02-21T10:05:14;70.85;;;40.78;;
45208;SDS011;30951;43.994;26.260;2024-02-21T10:07:40;66.40;;;38.80;;
45208;SDS011;30951;43.994;26.260;2024-02-21T10:10:05;74.97;;;39.47;;
45208;SDS011;30951;43.994;26.260;2024-02-21T10:12:31;76.28;;;42.63;;
45208;SDS011;30951;43.994;26.260;2024-02-21T10:15:00;72.82;;;40.85;;
45208;SDS011;30951;43.994;26.260;2024-02-21T10:17:29;71.25;;;39.03;;
45208;SDS011;30951;43.994;26.260;2024-02-21T10:19:55;73.22;;;36.28;;
45208;SDS011;30951;43.994;26.260;2024-02-21T10:22:20;66.05;;;34.15;;
45208;SDS011;30951;43.994;26.260;2024-02-21T10:24:46;62.65;;;34.97;;
45208;SDS011;30951;43.994;26.260;2024-02-21T10:27:12;58.38;;;33.90;;
45208;SDS011;30951;43.994;26.260;2024-02-21T10:29:38;59.15;;;34.08;;
45208;SDS011;30951;43.994;26.260;2024-02-21T10:32:07;58.90;;;31.08;;
45208;SDS011;30951;43.994;26.260;2024-02-21T10:34:35;56.50;;;30.40;;
45208;SDS011;30951;43.994;26.260;2024-02-21T10:37:01;46.25;;;25.20;;
45208;SDS011;30951;43.994;26.260;2024-02-21T10:39:28;49.40;;;26.98;;
45208;SDS011;30951;43.994;26.260;2024-02-21T10:41:54;37.58;;;22.05;;
45208;SDS011;30951;43.994;26.260;2024-02-21T10:44:25;37.33;;;20.83;;
45208;SDS011;30951;43.994;26.260;2024-02-21T10:46:54;35.20;;;20.77;;
45208;SDS011;30951;43.994;26.260;2024-02-21T10:49:22;35.78;;;20.45;;
45208;SDS011;30951;43.994;26.260;2024-02-21T10:52:05;44.90;;;23.77;;
45208;SDS011;30951;43.994;26.260;2024-02-21T10:54:45;41.70;;;23.52;;
45208;SDS011;30951;43.994;26.260;2024-02-21T10:57:15;41.90;;;22.88;;
45208;SDS011;30951;43.994;26.260;2024-02-21T10:59:41;48.25;;;27.35;;
45208;SDS011;30951;43.994;26.260;2024-02-21T11:02:09;55.65;;;30.10;;
45208;SDS011;30951;43.994;26.260;2024-02-21T11:04:35;57.08;;;31.73;;
45208;SDS011;30951;43.994;26.260;2024-02-21T11:07:02;72.22;;;37.22;;
45208;SDS011;30951;43.994;26.260;2024-02-21T11:09:29;60.08;;;32.72;;
45208;SDS011;30951;43.994;26.260;2024-02-21T11:11:57;54.47;;;29.45;;
45208;SDS011;30951;43.994;26.260;2024-02-21T11:14:26;55.95;;;31.73;;
45208;SDS011;30951;43.994;26.260;2024-02-21T11:16:53;56.92;;;30.92;;
45208;SDS011;30951;43.994;26.260;2024-02-21T11:19:21;60.28;;;30.83;;
45208;SDS011;30951;43.994;26.260;2024-02-21T11:21:49;58.92;;;32.42;;
45208;SDS011;30951;43.994;26.260;2024-02-21T11:24:25;56.13;;;32.42;;
45208;SDS011;30951;43.994;26.260;2024-02-21T11:26:52;56.60;;;30.77;;
45208;SDS011;30951;43.994;26.260;2024-02-21T11:29:22;53.33;;;30.38;;
45208;SDS011;30951;43.994;26.260;2024-02-21T11:31:49;55.30;;;30.63;;
45208;SDS011;30951;43.994;26.260;2024-02-21T11:34:17;48.40;;;29.48;;
45208;SDS011;30951;43.994;26.260;2024-02-21T11:36:47;51.13;;;27.33;;
45208;SDS011;30951;43.994;26.260;2024-02-21T11:39:18;49.95;;;27.65;;
45208;SDS011;30951;43.994;26.260;2024-02-21T11:42:02;47.63;;;27.20;;
45208;SDS011;30951;43.994;26.260;2024-02-21T11:44:29;48.60;;;27.42;;
45208;SDS011;30951;43.994;26.260;2024-02-21T11:46:55;46.90;;;26.00;;
45208;SDS011;30951;43.994;26.260;2024-02-21T11:49:21;46.58;;;25.90;;
45208;SDS011;30951;43.994;26.260;2024-02-21T11:51:46;41.20;;;24.77;;
45208;SDS011;30951;43.994;26.260;2024-02-21T11:54:11;42.67;;;25.05;;
45208;SDS011;30951;43.994;26.260;2024-02-21T11:56:41;43.65;;;26.08;;
45208;SDS011;30951;43.994;26.260;2024-02-21T11:59:06;51.30;;;30.80;;
45208;SDS011;30951;43.994;26.260;2024-02-21T12:01:32;54.55;;;33.20;;
45208;SDS011;30951;43.994;26.260;2024-02-21T12:03:57;93.70;;;71.70;;
45208;SDS011;30951;43.994;26.260;2024-02-21T12:06:23;82.82;;;60.97;;
45208;SDS011;30951;43.994;26.260;2024-02-21T12:08:48;67.85;;;45.38;;
45208;SDS011;30951;43.994;26.260;2024-02-21T12:11:23;68.45;;;47.65;;
45208;SDS011;30951;43.994;26.260;2024-02-21T12:14:01;46.28;;;27.77;;
45208;SDS011;30951;43.994;26.260;2024-02-21T12:16:38;42.38;;;25.80;;
45208;SDS011;30951;43.994;26.260;2024-02-21T12:19:03;44.45;;;25.15;;
45208;SDS011;30951;43.994;26.260;2024-02-21T12:21:30;52.95;;;31.58;;
45208;SDS011;30951;43.994;26.260;2024-02-21T12:23:58;48.15;;;32.28;;
45208;SDS011;30951;43.994;26.260;2024-02-21T12:26:24;44.58;;;26.45;;
45208;SDS011;30951;43.994;26.260;2024-02-21T12:28:53;41.72;;;26.38;;
45208;SDS011;30951;43.994;26.260;2024-02-21T12:31:20;57.42;;;32.35;;
45208;SDS011;30951;43.994;26.260;2024-02-21T12:33:46;60.08;;;34.10;;
45208;SDS011;30951;43.994;26.260;2024-02-21T12:36:13;56.53;;;32.03;;
45208;SDS011;30951;43.994;26.260;2024-02-21T12:38:38;51.35;;;31.95;;
45208;SDS011;30951;43.994;26.260;2024-02-21T12:41:04;55.25;;;31.63;;
45208;SDS011;30951;43.994;26.260;2024-02-21T12:43:30;53.65;;;32.00;;
45208;SDS011;30951;43.994;26.260;2024-02-21T12:45:56;48.20;;;28.35;;
45208;SDS011;30951;43.994;26.260;2024-02-21T12:48:21;44.58;;;25.92;;
45208;SDS011;30951;43.994;26.260;2024-02-21T12:50:48;45.67;;;26.77;;
45208;SDS011;30951;43.994;26.260;2024-02-21T12:53:17;41.78;;;26.98;;
45208;SDS011;30951;43.994;26.260;2024-02-21T12:55:46;44.42;;;25.75;;
45208;SDS011;30951;43.994;26.260;2024-02-21T12:58:13;43.90;;;25.85;;
45208;SDS011;30951;43.994;26.260;2024-02-21T13:00:39;42.00;;;26.15;;
45208;SDS011;30951;43.994;26.260;2024-02-21T13:03:05;47.22;;;26.27;;
45208;SDS011;30951;43.994;26.260;2024-02-21T13:05:30;43.65;;;29.30;;
45208;SDS011;30951;43.994;26.260;2024-02-21T13:07:57;44.55;;;26.67;;
45208;SDS011;30951;43.994;26.260;2024-02-21T13:10:23;39.65;;;26.42;;
45208;SDS011;30951;43.994;26.260;2024-02-21T13:12:49;43.83;;;25.90;;
45208;SDS011;30951;43.994;26.260;2024-02-21T13:15:14;40.80;;;26.25;;
45208;SDS011;30951;43.994;26.260;2024-02-21T13:17:41;41.70;;;25.27;;
45208;SDS011;30951;43.994;26.260;2024-02-21T13:20:07;42.70;;;26.77;;
45208;SDS011;30951;43.994;26.260;2024-02-21T13:22:33;39.95;;;25.42;;
45208;SDS011;30951;43.994;26.260;2024-02-21T13:24:59;50.88;;;26.70;;
45208;SDS011;30951;43.994;26.260;2024-02-21T13:27:25;39.35;;;25.60;;
45208;SDS011;30951;43.994;26.260;2024-02-21T13:29:51;39.22;;;25.98;;
45208;SDS011;30951;43.994;26.260;2024-02-21T13:32:18;68.43;;;44.75;;
45208;SDS011;30951;43.994;26.260;2024-02-21T13:34:43;42.85;;;27.77;;
45208;SDS011;30951;43.994;26.260;2024-02-21T13:37:09;45.65;;;26.50;;
45208;SDS011;30951;43.994;26.260;2024-02-21T13:39:35;41.65;;;26.40;;
45208;SDS011;30951;43.994;26.260;2024-02-21T13:42:01;66.55;;;39.53;;
45208;SDS011;30951;43.994;26.260;2024-02-21T13:44:27;81.78;;;54.03;;
45208;SDS011;30951;43.994;26.260;2024-02-21T13:46:52;45.03;;;28.20;;
45208;SDS011;30951;43.994;26.260;2024-02-21T13:49:19;44.88;;;27.85;;
45208;SDS011;30951;43.994;26.260;2024-02-21T13:51:45;49.10;;;28.13;;
45208;SDS011;30951;43.994;26.260;2024-02-21T13:54:10;44.85;;;28.40;;
45208;SDS011;30951;43.994;26.260;2024-02-21T13:56:36;45.00;;;29.95;;
45208;SDS011;30951;43.994;26.260;2024-02-21T13:59:02;54.05;;;32.42;;
45208;SDS011;30951;43.994;26.260;2024-02-21T14:01:28;47.83;;;29.63;;
45208;SDS011;30951;43.994;26.260;2024-02-21T14:03:54;55.25;;;33.08;;
45208;SDS011;30951;43.994;26.260;2024-02-21T14:06:19;43.60;;;28.33;;
45208;SDS011;30951;43.994;26.260;2024-02-21T14:08:45;47.55;;;28.42;;